Altoona, WI (54720)

3:04 AM CST on November 28, 2014 (GMT -0600)
Memorial High area | Change Station
CLOSE
Current Station
Personal Weather Station
Location: Eau Claire, WI
Elevation: 880 ft
Nearby Weather Stations

Elev 880 ft 44.80 °N, 91.48 °W | Updated 6 seconds ago

Light Snow
Light Snow
9.9 °F
Feels Like 10 °F
N
0.0
Wind Variable Wind from North
Gusts 0.0 mph

Today
High -- | Low -- °F
--% Chance of Precip.
Yesterday
High -- | Low -- °F
Precip. -- in
7:19 AM 4:27 PM
Waxing Crescent, 38% visible
Pressure 30.29 in
Visibility 1.0 miles
Clouds
Windchill 10 °F
Dew Point 5 °F
Humidity 81%
Rainfall 0.00 in
Snow Depth Not available.
UV Not available.
Pollen .10 out of 12
Air Quality Not available.
Flu Activity Not available.
METAR KEAU 280856Z AUTO 14006KT 1SM -SN VV013 M13/M16 A3022 RMK AO2 SLP256 P0000 60000 T11281156 58027

More Conditions Fewer Conditions

Pressure 30.29 in
Visibility 1.0 miles
Clouds
Windchill 10 °F
Dew Point 5 °F
Humidity 81%
Rainfall 0.00 in
Snow Depth Not available.
UV Not available.
Pollen .10 out of 12
Air Quality Not available.
Flu Activity Not available.
METAR KEAU 280856Z AUTO 14006KT 1SM -SN VV013 M13/M16 A3022 RMK AO2 SLP256 P0000 60000 T11281156 58027

More Conditions Fewer Conditions

10-Day Weather Forecast

Almanac

Astronomy

Nov. 28, 2014 Rise Set
Actual Time
Civil Twilight
Nautical Twilight
Astronomical Twilight
Moon
Length of Visible Light
Length of Day
Tomorrow will be .
, % of the Moon is Illuminated

Today's Extremes

State Highs State Lows

Community

WunderPhotos

Upload Photos

1,774,190 photos uploaded!

WunderBlogs® & News

Nearby

Air Quality

  Air Quality AQ Index Pollutant
Not available.

Snow Depth

Station Depth Elevation

Earthquake Activity

City Distance Mag. Time & Date
Minimum magnitude displayed is 2.5.

Coastal Water Temperatures

Place Temperature

Nearby Weather Stations